Time;durP1;ratioP1;P1;durP2;ratioP2;P2;SDS_P1;SDS_P2;PMS_P1;PMS_P2;Temp;Humidity;BMP_temperature;BMP_pressure;BME280_temperature;BME280_humidity;BME280_pressure;Samples;Min_cycle;Max_cycle;Signal;HPM_P1;HPM_P2
2023/12/22 00:01:52;;;;;;;;;;;19.40;56.80;;;;;;5093406;28;19924;-58
2023/12/22 00:04:18;;;;;;;;;;;19.40;56.80;;;;;;5094235;28;20442;-58
2023/12/22 00:06:43;;;;;;;;;;;19.40;56.80;;;;;;5093548;28;19931;-57
2023/12/22 00:09:09;;;;;;;;;;;19.40;56.80;;;;;;5093322;28;20011;-57
2023/12/22 00:11:34;;;;;;;;;;;19.30;56.70;;;;;;5076471;28;20256;-58
2023/12/22 00:14:00;;;;;;;;;;;19.30;56.70;;;;;;5076127;28;20032;-58
2023/12/22 00:16:25;;;;;;;;;;;19.30;57.10;;;;;;5093598;28;20371;-58
2023/12/22 00:18:52;;;;;;;;;;;19.30;56.70;;;;;;5076268;28;20007;-61
2023/12/22 00:21:17;;;;;;;;;;;19.30;56.70;;;;;;5093742;28;20276;-58
2023/12/22 00:23:42;;;;;;;;;;;19.30;56.70;;;;;;5093451;28;19928;-58
2023/12/22 00:26:08;;;;;;;;;;;19.30;56.70;;;;;;5076117;28;19924;-58
2023/12/22 00:28:33;;;;;;;;;;;19.30;57.40;;;;;;5075754;28;20335;-58
2023/12/22 00:30:59;;;;;;;;;;;19.20;56.60;;;;;;5074833;28;19930;-58
2023/12/22 00:33:25;;;;;;;;;;;19.20;56.60;;;;;;5094042;28;19924;-58
2023/12/22 00:35:51;;;;;;;;;;;19.20;56.60;;;;;;5092300;28;19977;-58
2023/12/22 00:38:16;;;;;;;;;;;19.20;56.60;;;;;;5093435;28;19928;-58
2023/12/22 00:40:42;;;;;;;;;;;19.20;56.50;;;;;;5094042;28;19924;-58
2023/12/22 00:43:07;;;;;;;;;;;19.20;56.40;;;;;;5092450;28;19928;-58
2023/12/22 00:45:33;;;;;;;;;;;19.20;56.40;;;;;;5093561;28;19928;-58
2023/12/22 00:47:58;;;;;;;;;;;19.20;56.40;;;;;;5093519;28;19931;-58
2023/12/22 00:50:24;;;;;;;;;;;19.10;56.40;;;;;;5092958;28;19924;-58
2023/12/22 00:52:49;;;;;;;;;;;19.10;56.30;;;;;;5093755;28;20011;-58
2023/12/22 00:55:15;;;;;;;;;;;19.10;56.40;;;;;;5075348;28;19977;-58
2023/12/22 00:57:40;;;;;;;;;;;19.10;56.30;;;;;;5092894;28;19924;-58
2023/12/22 01:00:09;;;;;;;;;;;19.10;56.40;;;;;;5093167;28;19932;-58
2023/12/22 01:02:34;;;;;;;;;;;19.10;56.40;;;;;;5093356;28;19931;-58
2023/12/22 01:04:59;;;;;;;;;;;19.10;57.10;;;;;;5092396;28;19924;-58
2023/12/22 01:07:25;;;;;;;;;;;19.10;56.40;;;;;;5075043;28;19924;-58
2023/12/22 01:09:51;;;;;;;;;;;19.10;56.40;;;;;;5075547;28;20016;-58
2023/12/22 01:12:16;;;;;;;;;;;19.10;56.40;;;;;;5074916;28;19925;-58
2023/12/22 01:14:45;;;;;;;;;;;19.00;56.30;;;;;;5075531;28;19932;-58
2023/12/22 01:17:10;;;;;;;;;;;19.00;56.30;;;;;;5108368;28;19928;-58
2023/12/22 01:19:36;;;;;;;;;;;19.10;56.30;;;;;;5092266;28;19946;-58
2023/12/22 01:22:02;;;;;;;;;;;19.00;56.20;;;;;;5092499;28;19924;-58
2023/12/22 01:24:28;;;;;;;;;;;19.00;56.20;;;;;;5093433;28;19924;-58
2023/12/22 01:26:53;;;;;;;;;;;19.00;56.20;;;;;;5092213;28;20380;-58
2023/12/22 01:29:19;;;;;;;;;;;19.00;56.30;;;;;;5093128;28;20376;-58
2023/12/22 01:31:44;;;;;;;;;;;19.00;56.20;;;;;;5074960;28;19924;-58
2023/12/22 01:34:10;;;;;;;;;;;19.00;56.20;;;;;;5091475;28;19932;-58
2023/12/22 01:36:35;;;;;;;;;;;19.00;56.20;;;;;;5084513;28;19931;-58
2023/12/22 01:39:01;;;;;;;;;;;18.90;56.10;;;;;;5091928;28;19924;-58
2023/12/22 01:41:26;;;;;;;;;;;19.00;56.30;;;;;;5091940;28;19924;-58
2023/12/22 01:43:52;;;;;;;;;;;18.90;56.20;;;;;;5092640;28;19924;-58
2023/12/22 01:46:17;;;;;;;;;;;18.90;56.20;;;;;;5092055;28;19934;-58
2023/12/22 01:48:43;;;;;;;;;;;18.90;56.20;;;;;;5075209;28;19928;-58
2023/12/22 01:51:08;;;;;;;;;;;18.90;56.20;;;;;;5074929;28;20387;-58
2023/12/22 01:53:33;;;;;;;;;;;18.90;56.10;;;;;;5074213;28;19934;-58
2023/12/22 01:55:59;;;;;;;;;;;18.90;56.10;;;;;;5074291;28;19950;-58
2023/12/22 01:58:25;;;;;;;;;;;18.90;56.90;;;;;;5074619;28;20011;-58
2023/12/22 02:00:52;;;;;;;;;;;18.90;56.10;;;;;;5074322;28;19924;-58
2023/12/22 02:03:17;;;;;;;;;;;18.90;56.10;;;;;;5092927;28;19978;-58
2023/12/22 02:05:43;;;;;;;;;;;18.90;56.00;;;;;;5092688;28;20299;-57
2023/12/22 02:08:09;;;;;;;;;;;18.90;56.00;;;;;;5091878;28;19928;-58
2023/12/22 02:10:34;;;;;;;;;;;18.90;56.00;;;;;;5057866;28;20371;-57
2023/12/22 02:13:00;;;;;;;;;;;18.90;55.90;;;;;;5074373;28;19932;-58
2023/12/22 02:15:25;;;;;;;;;;;18.90;55.80;;;;;;5091826;28;19946;-58
2023/12/22 02:17:59;;;;;;;;;;;18.90;55.80;;;;;;5092969;28;19924;-58
2023/12/22 02:20:24;;;;;;;;;;;18.90;55.80;;;;;;5092677;28;19960;-57
2023/12/22 02:22:53;;;;;;;;;;;18.90;56.40;;;;;;5073916;28;19924;-59
2023/12/22 02:25:21;;;;;;;;;;;18.90;55.80;;;;;;5074438;28;20011;-58
2023/12/22 02:27:50;;;;;;;;;;;18.90;55.70;;;;;;5091786;28;19977;-58
2023/12/22 02:30:21;;;;;;;;;;;18.90;55.70;;;;;;5095538;28;19924;-58
2023/12/22 02:32:47;;;;;;;;;;;18.90;55.70;;;;;;5078049;28;19963;-59
2023/12/22 02:35:17;;;;;;;;;;;18.90;55.70;;;;;;5077636;28;19931;-58
2023/12/22 02:37:42;;;;;;;;;;;18.90;56.30;;;;;;5095988;28;19924;-59
2023/12/22 02:40:09;;;;;;;;;;;18.90;55.70;;;;;;5095637;28;19931;-59
2023/12/22 02:42:35;;;;;;;;;;;18.90;55.70;;;;;;5077188;28;19949;-59
2023/12/22 02:45:01;;;;;;;;;;;18.90;55.70;;;;;;5077213;28;19924;-59
2023/12/22 02:47:30;;;;;;;;;;;18.90;55.70;;;;;;5077975;28;19920;-59
2023/12/22 02:49:55;;;;;;;;;;;18.90;55.70;;;;;;5094993;28;19924;-59
2023/12/22 02:52:21;;;;;;;;;;;18.90;55.70;;;;;;5077660;28;19965;-59
2023/12/22 02:54:47;;;;;;;;;;;19.00;55.70;;;;;;5077273;28;19928;-59
2023/12/22 02:57:12;;;;;;;;;;;19.00;55.70;;;;;;5076351;28;19924;-59
2023/12/22 02:59:38;;;;;;;;;;;19.00;55.70;;;;;;5095808;28;19920;-59
2023/12/22 03:02:03;;;;;;;;;;;19.00;55.60;;;;;;5095058;28;19934;-59
2023/12/22 03:04:29;;;;;;;;;;;19.00;55.70;;;;;;5093978;28;19924;-59
2023/12/22 03:06:54;;;;;;;;;;;19.00;55.70;;;;;;5095017;28;20007;-59
2023/12/22 03:09:21;;;;;;;;;;;19.00;55.70;;;;;;5077310;28;19931;-59
2023/12/22 03:11:47;;;;;;;;;;;19.00;55.70;;;;;;5095022;28;19925;-59
2023/12/22 03:14:12;;;;;;;;;;;19.00;55.70;;;;;;5095478;28;19976;-59
2023/12/22 03:16:39;;;;;;;;;;;19.00;55.70;;;;;;5095319;28;19931;-59
2023/12/22 03:19:04;;;;;;;;;;;19.00;55.70;;;;;;5094548;28;19934;-59
2023/12/22 03:21:30;;;;;;;;;;;19.10;55.60;;;;;;5095139;28;20007;-59
2023/12/22 03:23:55;;;;;;;;;;;19.00;55.60;;;;;;5094878;28;20379;-59
2023/12/22 03:26:21;;;;;;;;;;;19.00;55.60;;;;;;5076591;28;19925;-59
2023/12/22 03:28:46;;;;;;;;;;;19.00;55.60;;;;;;5077428;28;20328;-59
2023/12/22 03:31:12;;;;;;;;;;;19.00;55.50;;;;;;5094850;28;19931;-59
2023/12/22 03:33:37;;;;;;;;;;;19.00;55.50;;;;;;5094437;28;19924;-59
2023/12/22 03:36:03;;;;;;;;;;;19.00;55.50;;;;;;5094666;28;20392;-58
2023/12/22 03:38:28;;;;;;;;;;;19.00;55.40;;;;;;5094570;28;19931;-59
2023/12/22 03:40:54;;;;;;;;;;;19.10;55.50;;;;;;5075656;28;20005;-59
2023/12/22 03:43:19;;;;;;;;;;;19.10;55.50;;;;;;5077110;28;19924;-59
2023/12/22 03:45:45;;;;;;;;;;;19.10;55.40;;;;;;5094117;28;20368;-59
2023/12/22 03:48:10;;;;;;;;;;;19.10;55.40;;;;;;5076362;28;20492;-59
2023/12/22 03:50:35;;;;;;;;;;;19.10;55.40;;;;;;5076659;28;19967;-59
2023/12/22 03:53:01;;;;;;;;;;;19.10;55.30;;;;;;5075931;28;19951;-59
2023/12/22 03:55:26;;;;;;;;;;;19.10;55.30;;;;;;5076966;28;19928;-59
2023/12/22 03:57:52;;;;;;;;;;;19.10;55.30;;;;;;5094541;28;19924;-59
2023/12/22 04:00:17;;;;;;;;;;;19.10;55.30;;;;;;5093735;28;20376;-59
2023/12/22 04:02:43;;;;;;;;;;;19.10;55.30;;;;;;5094511;28;19924;-59
2023/12/22 04:05:10;;;;;;;;;;;19.20;55.30;;;;;;5094358;28;20295;-59
2023/12/22 04:07:36;;;;;;;;;;;19.20;55.20;;;;;;5093646;28;19931;-59
2023/12/22 04:10:01;;;;;;;;;;;19.20;55.20;;;;;;5076244;28;19924;-59
2023/12/22 04:12:27;;;;;;;;;;;19.20;55.20;;;;;;5094507;28;20320;-59
2023/12/22 04:14:53;;;;;;;;;;;19.20;55.20;;;;;;5075456;28;19932;-59
2023/12/22 04:17:19;;;;;;;;;;;19.20;55.20;;;;;;5094580;28;19932;-59
2023/12/22 04:19:44;;;;;;;;;;;19.20;55.20;;;;;;5076219;28;19924;-59
2023/12/22 04:22:10;;;;;;;;;;;19.30;55.30;;;;;;5074660;28;19993;-59
2023/12/22 04:24:35;;;;;;;;;;;19.30;55.30;;;;;;5075826;28;19924;-59
2023/12/22 04:27:01;;;;;;;;;;;19.30;55.30;;;;;;5093822;28;19947;-59
2023/12/22 04:29:26;;;;;;;;;;;19.30;55.20;;;;;;5075297;28;19932;-59
2023/12/22 04:31:52;;;;;;;;;;;19.30;55.20;;;;;;5093542;28;20014;-59
2023/12/22 04:34:17;;;;;;;;;;;19.30;55.20;;;;;;5094212;28;19924;-58
2023/12/22 04:36:43;;;;;;;;;;;19.30;55.20;;;;;;5093418;28;19924;-59
2023/12/22 04:39:08;;;;;;;;;;;19.30;55.20;;;;;;5093865;28;19978;-59
2023/12/22 04:41:34;;;;;;;;;;;19.40;55.20;;;;;;5094108;28;20439;-59
2023/12/22 04:44:03;;;;;;;;;;;19.40;55.20;;;;;;5074944;28;19924;-59
2023/12/22 04:46:29;;;;;;;;;;;19.40;55.20;;;;;;5093603;28;20283;-59
2023/12/22 04:48:54;;;;;;;;;;;19.40;55.10;;;;;;5074834;28;19928;-59
2023/12/22 04:51:20;;;;;;;;;;;19.40;55.10;;;;;;5092671;28;19924;-58
2023/12/22 04:53:45;;;;;;;;;;;19.40;55.20;;;;;;5075480;28;19935;-59
2023/12/22 04:56:11;;;;;;;;;;;19.50;55.20;;;;;;5092503;28;19934;-59
2023/12/22 04:58:36;;;;;;;;;;;19.50;55.20;;;;;;5093460;28;19924;-59
2023/12/22 05:01:02;;;;;;;;;;;19.50;55.20;;;;;;5089062;28;19932;-58
2023/12/22 05:03:27;;;;;;;;;;;19.50;55.10;;;;;;5083756;28;19931;-59
2023/12/22 05:05:52;;;;;;;;;;;19.50;55.80;;;;;;5074115;28;19924;-60
2023/12/22 05:08:18;;;;;;;;;;;19.50;55.10;;;;;;5093278;28;19924;-59
2023/12/22 05:10:44;;;;;;;;;;;19.60;55.20;;;;;;5092608;28;19935;-59
2023/12/22 05:13:09;;;;;;;;;;;19.50;55.10;;;;;;5093045;28;19967;-59
2023/12/22 05:15:34;;;;;;;;;;;19.50;55.00;;;;;;5093388;28;19925;-59
2023/12/22 05:18:00;;;;;;;;;;;19.50;55.00;;;;;;5074187;28;20433;-59
2023/12/22 05:20:25;;;;;;;;;;;19.50;55.00;;;;;;5092921;28;19930;-59
2023/12/22 05:22:51;;;;;;;;;;;19.60;55.00;;;;;;5093313;28;19928;-59
2023/12/22 05:25:16;;;;;;;;;;;19.60;55.00;;;;;;5092389;28;19925;-59
2023/12/22 05:27:43;;;;;;;;;;;19.60;55.00;;;;;;5093410;28;20395;-59
2023/12/22 05:30:08;;;;;;;;;;;19.60;55.00;;;;;;5093242;28;19928;-59
2023/12/22 05:32:34;;;;;;;;;;;19.60;54.90;;;;;;5092757;28;20031;-59
2023/12/22 05:34:59;;;;;;;;;;;19.60;54.90;;;;;;5092538;28;19931;-59
2023/12/22 05:37:25;;;;;;;;;;;19.60;54.90;;;;;;5092862;28;19924;-59
2023/12/22 05:39:50;;;;;;;;;;;19.60;54.90;;;;;;5091144;28;19931;-59
2023/12/22 05:42:16;;;;;;;;;;;19.60;54.90;;;;;;5092918;28;20007;-59
2023/12/22 05:44:42;;;;;;;;;;;19.60;54.80;;;;;;5092993;28;20299;-59
2023/12/22 05:47:07;;;;;;;;;;;19.70;54.80;;;;;;5092198;28;19920;-59
2023/12/22 05:49:33;;;;;;;;;;;19.70;54.80;;;;;;5093083;28;19986;-59
2023/12/22 05:51:59;;;;;;;;;;;19.70;54.70;;;;;;5108671;28;19920;-59
2023/12/22 05:54:25;;;;;;;;;;;19.70;54.70;;;;;;5074422;28;19973;-59
2023/12/22 05:56:51;;;;;;;;;;;19.70;54.60;;;;;;5075325;28;19924;-59
2023/12/22 05:59:17;;;;;;;;;;;19.70;54.60;;;;;;5107986;28;20366;-59
2023/12/22 06:01:43;;;;;;;;;;;19.70;54.60;;;;;;5092696;28;20427;-59
2023/12/22 06:04:08;;;;;;;;;;;19.70;54.60;;;;;;5076516;28;20027;-59
2023/12/22 06:06:33;;;;;;;;;;;19.70;54.60;;;;;;5095958;28;19927;-59
2023/12/22 06:08:59;;;;;;;;;;;19.70;54.50;;;;;;5096265;28;19950;-59
2023/12/22 06:11:24;;;;;;;;;;;19.70;54.50;;;;;;5096827;28;19963;-59
2023/12/22 06:13:50;;;;;;;;;;;19.70;54.50;;;;;;5096043;28;19925;-59
2023/12/22 06:16:15;;;;;;;;;;;19.70;54.50;;;;;;5078343;28;19924;-59
2023/12/22 06:18:41;;;;;;;;;;;19.80;54.50;;;;;;5096574;28;20368;-59
2023/12/22 06:21:07;;;;;;;;;;;19.80;54.50;;;;;;5094093;28;20292;-59
2023/12/22 06:23:33;;;;;;;;;;;19.80;54.50;;;;;;5096699;28;19924;-59
2023/12/22 06:25:58;;;;;;;;;;;19.80;54.50;;;;;;5077833;28;19954;-59
2023/12/22 06:28:24;;;;;;;;;;;19.80;54.50;;;;;;5095700;28;20418;-59
2023/12/22 06:30:49;;;;;;;;;;;19.80;54.40;;;;;;5078170;28;19928;-59
2023/12/22 06:33:15;;;;;;;;;;;19.80;54.50;;;;;;5077454;28;19924;-59
2023/12/22 06:35:41;;;;;;;;;;;19.80;54.40;;;;;;5095322;28;19977;-59
2023/12/22 06:38:07;;;;;;;;;;;19.80;54.40;;;;;;5096130;28;19920;-59
2023/12/22 06:40:34;;;;;;;;;;;19.80;54.40;;;;;;5077953;28;20003;-59
2023/12/22 06:42:59;;;;;;;;;;;19.80;54.40;;;;;;5095179;28;19924;-59
2023/12/22 06:45:25;;;;;;;;;;;19.80;54.40;;;;;;5096043;28;19976;-59
2023/12/22 06:47:50;;;;;;;;;;;19.80;54.40;;;;;;5078185;28;19924;-59
2023/12/22 06:50:16;;;;;;;;;;;19.90;54.40;;;;;;5094817;28;20391;-58
2023/12/22 06:52:41;;;;;;;;;;;19.80;54.40;;;;;;5075782;28;20275;-59
2023/12/22 06:55:07;;;;;;;;;;;19.90;54.50;;;;;;5095641;28;20007;-59
2023/12/22 06:57:32;;;;;;;;;;;19.80;54.40;;;;;;5076923;28;19924;-59
2023/12/22 06:59:58;;;;;;;;;;;19.80;54.40;;;;;;5095952;28;19924;-59
2023/12/22 07:02:23;;;;;;;;;;;19.80;54.40;;;;;;5076812;28;19977;-59
2023/12/22 07:05:08;;;;;;;;;;;19.80;54.40;;;;;;5076436;28;19924;-59
2023/12/22 07:07:33;;;;;;;;;;;19.90;54.40;;;;;;5095768;28;19924;-59
2023/12/22 07:09:59;;;;;;;;;;;19.90;54.40;;;;;;5076409;28;20456;-59
2023/12/22 07:12:24;;;;;;;;;;;19.90;54.40;;;;;;5095913;28;20019;-59
2023/12/22 07:14:50;;;;;;;;;;;19.90;54.40;;;;;;5076955;28;19961;-59
2023/12/22 07:17:15;;;;;;;;;;;19.90;54.40;;;;;;5076442;28;19924;-59
2023/12/22 07:19:41;;;;;;;;;;;19.90;54.40;;;;;;5095480;28;20029;-59
2023/12/22 07:22:06;;;;;;;;;;;19.90;54.40;;;;;;5094836;28;20015;-59
2023/12/22 07:24:32;;;;;;;;;;;19.90;54.30;;;;;;5090908;28;19969;-58
2023/12/22 07:26:57;;;;;;;;;;;19.90;54.40;;;;;;5091806;28;19924;-59
2023/12/22 07:29:23;;;;;;;;;;;19.90;54.50;;;;;;5094857;28;19924;-59
2023/12/22 07:31:51;;;;;;;;;;;19.90;54.70;;;;;;5093714;28;19924;-59
2023/12/22 07:34:18;;;;;;;;;;;20.00;54.70;;;;;;5094090;28;19965;-59
2023/12/22 07:36:44;;;;;;;;;;;20.00;54.70;;;;;;5094211;28;19924;-60
2023/12/22 07:39:10;;;;;;;;;;;20.00;54.60;;;;;;5074104;28;19973;-59
2023/12/22 07:41:36;;;;;;;;;;;20.00;54.70;;;;;;5076619;28;19931;-60
2023/12/22 07:44:01;;;;;;;;;;;20.00;54.70;;;;;;5094526;28;19924;-59
2023/12/22 07:46:28;;;;;;;;;;;20.00;54.80;;;;;;5075736;28;20276;-59
2023/12/22 07:48:53;;;;;;;;;;;20.00;55.00;;;;;;5093983;28;19924;-60
2023/12/22 07:51:19;;;;;;;;;;;20.00;55.00;;;;;;5078745;28;19946;-60
2023/12/22 07:53:45;;;;;;;;;;;20.00;55.10;;;;;;5092737;28;19931;-59
2023/12/22 07:56:10;;;;;;;;;;;20.00;55.20;;;;;;5109655;28;20756;-59
2023/12/22 07:58:36;;;;;;;;;;;20.00;55.40;;;;;;5093224;28;19920;-60
2023/12/22 08:01:02;;;;;;;;;;;20.00;55.40;;;;;;5093150;28;19977;-60
2023/12/22 08:03:28;;;;;;;;;;;20.00;55.40;;;;;;5094390;28;19985;-59
2023/12/22 08:05:54;;;;;;;;;;;20.00;55.40;;;;;;5074987;28;20376;-59
2023/12/22 08:08:19;;;;;;;;;;;20.00;55.50;;;;;;5076091;28;19924;-59
2023/12/22 08:10:45;;;;;;;;;;;20.10;55.60;;;;;;5094436;28;19924;-60
2023/12/22 08:13:10;;;;;;;;;;;20.10;55.70;;;;;;5073490;28;19935;-59
2023/12/22 08:15:35;;;;;;;;;;;20.10;55.70;;;;;;5094293;28;19924;-58
2023/12/22 08:18:01;;;;;;;;;;;20.10;55.70;;;;;;5087427;28;19920;-59
2023/12/22 08:20:27;;;;;;;;;;;20.10;55.60;;;;;;5075332;28;19924;-58
2023/12/22 08:22:52;;;;;;;;;;;20.10;55.50;;;;;;5099581;28;19924;-59
2023/12/22 08:25:20;;;;;;;;;;;20.10;55.50;;;;;;5081610;28;20302;-58
2023/12/22 08:27:45;;;;;;;;;;;20.10;55.50;;;;;;5103574;28;19939;-59
2023/12/22 08:30:11;;;;;;;;;;;20.10;55.50;;;;;;5102733;28;19928;-65
2023/12/22 08:32:37;;;;;;;;;;;20.10;55.50;;;;;;5104080;28;19985;-59
2023/12/22 08:35:04;;;;;;;;;;;20.10;55.70;;;;;;5085060;28;19946;-59
2023/12/22 08:37:29;;;;;;;;;;;20.10;55.80;;;;;;5084135;28;19924;-59
2023/12/22 08:39:55;;;;;;;;;;;20.10;55.80;;;;;;5095265;28;19935;-58
2023/12/22 08:42:22;;;;;;;;;;;20.10;55.80;;;;;;5092763;28;19924;-58
2023/12/22 08:44:47;;;;;;;;;;;20.10;55.70;;;;;;5093444;28;19924;-58
2023/12/22 08:47:13;;;;;;;;;;;20.10;55.60;;;;;;5075612;28;19930;-57
2023/12/22 08:49:38;;;;;;;;;;;20.10;55.60;;;;;;5093254;28;19924;-58
2023/12/22 08:52:04;;;;;;;;;;;20.10;55.60;;;;;;5075231;28;20639;-59
2023/12/22 08:54:30;;;;;;;;;;;20.10;55.50;;;;;;5075838;28;19924;-58
2023/12/22 08:56:55;;;;;;;;;;;20.10;55.50;;;;;;5074886;28;20382;-58
2023/12/22 08:59:21;;;;;;;;;;;20.10;55.60;;;;;;5075297;28;20409;-58
2023/12/22 09:01:46;;;;;;;;;;;20.10;55.60;;;;;;5093493;28;20073;-59
2023/12/22 09:04:12;;;;;;;;;;;20.10;55.60;;;;;;5074774;28;20297;-58
2023/12/22 09:06:37;;;;;;;;;;;20.10;55.60;;;;;;5093270;28;20016;-58
2023/12/22 09:09:06;;;;;;;;;;;20.10;55.70;;;;;;5093451;28;19946;-59
2023/12/22 09:11:31;;;;;;;;;;;20.10;55.60;;;;;;5092572;28;20268;-58
2023/12/22 09:13:57;;;;;;;;;;;20.10;55.60;;;;;;5093065;28;19932;-58
2023/12/22 09:16:22;;;;;;;;;;;20.10;55.60;;;;;;5074682;28;19968;-59
2023/12/22 09:18:48;;;;;;;;;;;20.10;55.60;;;;;;5093320;28;20410;-59
2023/12/22 09:21:14;;;;;;;;;;;20.10;55.50;;;;;;5092620;28;20394;-59
2023/12/22 09:23:39;;;;;;;;;;;20.10;55.50;;;;;;5092317;28;19928;-60
2023/12/22 09:26:04;;;;;;;;;;;20.10;55.60;;;;;;5074760;28;20348;-59
2023/12/22 09:28:30;;;;;;;;;;;20.10;55.60;;;;;;5093101;28;19924;-59
2023/12/22 09:30:55;;;;;;;;;;;20.10;55.60;;;;;;5073866;28;20015;-59
2023/12/22 09:33:22;;;;;;;;;;;20.20;55.60;;;;;;5075001;28;19925;-60
2023/12/22 09:35:48;;;;;;;;;;;20.20;55.60;;;;;;5093243;28;19975;-58
2023/12/22 09:38:13;;;;;;;;;;;20.20;55.60;;;;;;5094442;28;19966;-59
2023/12/22 09:40:39;;;;;;;;;;;20.20;55.60;;;;;;5079101;28;19945;-59
2023/12/22 09:43:05;;;;;;;;;;;20.20;55.60;;;;;;5096747;28;20379;-59
2023/12/22 09:45:32;;;;;;;;;;;20.20;55.60;;;;;;5096686;28;20409;-59
2023/12/22 09:47:58;;;;;;;;;;;20.20;55.60;;;;;;5078604;28;19923;-59
2023/12/22 09:50:23;;;;;;;;;;;20.20;55.60;;;;;;5078809;28;19977;-59
2023/12/22 09:52:49;;;;;;;;;;;20.20;55.60;;;;;;5078110;28;19931;-59
2023/12/22 09:55:14;;;;;;;;;;;20.20;55.70;;;;;;5078578;28;19928;-59
2023/12/22 09:57:40;;;;;;;;;;;20.20;55.70;;;;;;5078918;28;20022;-59
2023/12/22 10:00:06;;;;;;;;;;;20.20;55.70;;;;;;5078069;28;19924;-59
2023/12/22 10:02:32;;;;;;;;;;;20.20;55.70;;;;;;5061781;28;19947;-59
2023/12/22 10:04:57;;;;;;;;;;;20.20;55.80;;;;;;5078687;28;20291;-58
2023/12/22 10:07:23;;;;;;;;;;;20.20;55.80;;;;;;5095970;28;19969;-60
2023/12/22 10:09:48;;;;;;;;;;;20.20;55.90;;;;;;5078885;28;20403;-59
2023/12/22 10:12:13;;;;;;;;;;;20.20;56.10;;;;;;5095007;28;20368;-60
2023/12/22 10:14:39;;;;;;;;;;;20.20;56.10;;;;;;5095712;28;20034;-60
2023/12/22 10:17:05;;;;;;;;;;;20.20;56.20;;;;;;5078213;28;20288;-60
2023/12/22 10:19:30;;;;;;;;;;;20.20;56.20;;;;;;5095912;28;19929;-59
2023/12/22 10:21:56;;;;;;;;;;;20.20;56.10;;;;;;5094514;28;19924;-59
2023/12/22 10:24:42;;;;;;;;;;;20.30;56.20;;;;;;5095242;28;20358;-60
2023/12/22 10:27:07;;;;;;;;;;;20.30;56.10;;;;;;5095672;28;19924;-60
2023/12/22 10:29:33;;;;;;;;;;;20.40;56.20;;;;;;5086733;28;19924;-61
2023/12/22 10:32:00;;;;;;;;;;;20.40;56.10;;;;;;5096230;28;20423;-61
2023/12/22 10:34:26;;;;;;;;;;;20.40;56.20;;;;;;5095827;28;19977;-61
2023/12/22 10:36:51;;;;;;;;;;;20.50;56.00;;;;;;5095627;28;19924;-60
2023/12/22 10:39:17;;;;;;;;;;;20.40;56.00;;;;;;5078129;28;19930;-60
2023/12/22 10:41:43;;;;;;;;;;;20.40;56.10;;;;;;5075961;28;19924;-60
2023/12/22 10:44:08;;;;;;;;;;;20.40;56.20;;;;;;5060876;28;19962;-60
2023/12/22 10:46:34;;;;;;;;;;;20.40;56.20;;;;;;5069817;28;19925;-60
2023/12/22 10:49:01;;;;;;;;;;;20.40;56.20;;;;;;5086236;28;19974;-60
2023/12/22 10:51:26;;;;;;;;;;;20.40;56.20;;;;;;5061166;28;19931;-60
2023/12/22 10:53:52;;;;;;;;;;;20.40;56.20;;;;;;5093992;28;19924;-61
2023/12/22 10:56:18;;;;;;;;;;;20.40;56.20;;;;;;5109996;28;19924;-60
2023/12/22 10:58:45;;;;;;;;;;;20.40;56.20;;;;;;5075227;28;19920;-59
2023/12/22 11:01:11;;;;;;;;;;;20.40;56.20;;;;;;5056622;28;20583;-59
2023/12/22 11:03:38;;;;;;;;;;;20.40;56.40;;;;;;5075400;28;19971;-59
2023/12/22 11:06:04;;;;;;;;;;;20.40;56.60;;;;;;5103505;28;19925;-60
2023/12/22 11:08:29;;;;;;;;;;;20.40;56.70;;;;;;5072973;28;19924;-58
2023/12/22 11:10:56;;;;;;;;;;;20.40;56.80;;;;;;5094268;28;19946;-59
2023/12/22 11:13:22;;;;;;;;;;;20.40;56.80;;;;;;5059842;28;20007;-59
2023/12/22 11:15:47;;;;;;;;;;;20.40;56.80;;;;;;5085389;28;20011;-59
2023/12/22 11:18:13;;;;;;;;;;;20.40;56.90;;;;;;5073294;28;19927;-59
2023/12/22 11:20:38;;;;;;;;;;;20.50;56.90;;;;;;5074342;28;20018;-59
2023/12/22 11:23:04;;;;;;;;;;;20.40;56.90;;;;;;5058363;28;19931;-59
2023/12/22 11:25:30;;;;;;;;;;;20.50;57.00;;;;;;5095979;28;19925;-60
2023/12/22 11:27:55;;;;;;;;;;;20.50;57.00;;;;;;5094522;28;19932;-60
2023/12/22 11:30:21;;;;;;;;;;;20.50;56.80;;;;;;5075340;28;19925;-61
2023/12/22 11:32:47;;;;;;;;;;;20.50;56.70;;;;;;5110427;28;20017;-60
2023/12/22 11:35:13;;;;;;;;;;;20.50;56.70;;;;;;5093585;28;20063;-60
2023/12/22 11:37:39;;;;;;;;;;;20.50;56.70;;;;;;5075414;28;19924;-60
2023/12/22 11:40:05;;;;;;;;;;;20.50;56.70;;;;;;5093725;28;19928;-60
2023/12/22 11:42:36;;;;;;;;;;;20.50;56.80;;;;;;5076605;28;20076;-60
2023/12/22 11:45:02;;;;;;;;;;;20.50;56.80;;;;;;5094180;28;19931;-60
2023/12/22 11:47:28;;;;;;;;;;;20.50;56.70;;;;;;5095151;28;20018;-60
2023/12/22 11:49:54;;;;;;;;;;;20.50;56.80;;;;;;5094700;28;19978;-61
2023/12/22 11:52:24;;;;;;;;;;;20.40;56.70;;;;;;5075273;28;19924;-60
2023/12/22 11:54:54;;;;;;;;;;;20.50;56.60;;;;;;5099152;28;19951;-60
2023/12/22 11:57:28;;;;;;;;;;;20.50;56.60;;;;;;5074231;28;19925;-60
2023/12/22 12:00:06;;;;;;;;;;;20.50;56.60;;;;;;5055278;28;20358;-60
2023/12/22 12:02:35;;;;;;;;;;;20.50;56.40;;;;;;5071355;28;19931;-60
2023/12/22 12:05:01;;;;;;;;;;;20.40;56.20;;;;;;5093716;28;19924;-60
2023/12/22 12:07:37;;;;;;;;;;;20.40;56.20;;;;;;5094331;28;20380;-60
2023/12/22 12:10:03;;;;;;;;;;;20.40;56.00;;;;;;5071856;28;20323;-60
2023/12/22 12:12:28;;;;;;;;;;;20.40;55.90;;;;;;5056295;28;19925;-59
2023/12/22 12:14:54;;;;;;;;;;;20.40;56.10;;;;;;5055756;28;20283;-60
2023/12/22 12:17:20;;;;;;;;;;;20.40;56.20;;;;;;5056164;28;19947;-60
2023/12/22 12:19:46;;;;;;;;;;;20.40;56.10;;;;;;5085093;28;20015;-61
2023/12/22 12:22:13;;;;;;;;;;;20.40;56.10;;;;;;5092162;28;20011;-60
2023/12/22 12:24:38;;;;;;;;;;;20.40;56.20;;;;;;5075956;28;19928;-61
2023/12/22 12:27:04;;;;;;;;;;;20.40;56.40;;;;;;5092858;28;19927;-60
2023/12/22 12:29:30;;;;;;;;;;;20.40;56.40;;;;;;5094073;28;19924;-60
2023/12/22 12:32:02;;;;;;;;;;;20.40;56.50;;;;;;5109310;28;19928;-60
2023/12/22 12:34:27;;;;;;;;;;;20.40;56.50;;;;;;5092831;28;19931;-61
2023/12/22 12:36:54;;;;;;;;;;;20.40;56.50;;;;;;5091549;28;19924;-62
2023/12/22 12:39:19;;;;;;;;;;;20.40;56.40;;;;;;5075401;28;19966;-61
2023/12/22 12:41:45;;;;;;;;;;;20.50;57.20;;;;;;5058409;28;19978;-61
2023/12/22 12:44:11;;;;;;;;;;;20.40;56.40;;;;;;5091258;28;20734;-61
2023/12/22 12:46:37;;;;;;;;;;;20.40;56.40;;;;;;5075730;28;19931;-61
2023/12/22 12:49:04;;;;;;;;;;;20.40;56.40;;;;;;5075010;28;19928;-61
2023/12/22 12:51:29;;;;;;;;;;;20.40;56.40;;;;;;5075634;28;20379;-61
2023/12/22 12:53:55;;;;;;;;;;;20.40;56.40;;;;;;5075210;28;19990;-61
2023/12/22 12:56:21;;;;;;;;;;;20.40;56.40;;;;;;5092038;28;20009;-61
2023/12/22 12:58:46;;;;;;;;;;;20.40;56.40;;;;;;5075492;28;19987;-61
2023/12/22 13:01:11;;;;;;;;;;;20.40;56.40;;;;;;5074982;28;20383;-61
2023/12/22 13:03:55;;;;;;;;;;;20.40;56.40;;;;;;5092898;28;20050;-61
2023/12/22 13:06:21;;;;;;;;;;;20.40;56.50;;;;;;5109056;28;20055;-61
2023/12/22 13:08:47;;;;;;;;;;;20.40;56.50;;;;;;5074831;28;20012;-61
2023/12/22 13:11:13;;;;;;;;;;;20.40;56.50;;;;;;5075061;28;20427;-61
2023/12/22 13:13:42;;;;;;;;;;;20.40;56.50;;;;;;5075304;28;20022;-61
2023/12/22 13:16:08;;;;;;;;;;;20.40;56.50;;;;;;5092746;28;19931;-61
2023/12/22 13:18:33;;;;;;;;;;;20.40;56.50;;;;;;5075330;28;19920;-61
2023/12/22 13:20:59;;;;;;;;;;;20.40;56.50;;;;;;5092774;28;19924;-60
2023/12/22 13:23:26;;;;;;;;;;;20.40;56.60;;;;;;5092064;28;20418;-61
2023/12/22 13:25:52;;;;;;;;;;;20.40;57.30;;;;;;5074994;28;20019;-61
2023/12/22 13:28:25;;;;;;;;;;;20.40;56.60;;;;;;5074946;28;19969;-61
2023/12/22 13:30:50;;;;;;;;;;;20.40;56.60;;;;;;5091441;28;19924;-61
2023/12/22 13:33:16;;;;;;;;;;;20.40;56.60;;;;;;5058341;28;19924;-61
2023/12/22 13:35:41;;;;;;;;;;;20.40;56.60;;;;;;5075101;28;19930;-61
2023/12/22 13:38:07;;;;;;;;;;;20.40;56.60;;;;;;5090748;28;19924;-59
2023/12/22 13:40:32;;;;;;;;;;;20.40;56.70;;;;;;5074988;28;19931;-59
2023/12/22 13:42:58;;;;;;;;;;;20.40;56.60;;;;;;5058040;28;19931;-58
2023/12/22 13:45:24;;;;;;;;;;;20.40;56.70;;;;;;5092214;28;19958;-58
2023/12/22 13:47:50;;;;;;;;;;;20.40;56.70;;;;;;5093028;28;20022;-58
2023/12/22 13:50:16;;;;;;;;;;;20.40;56.70;;;;;;5074499;28;20006;-58
2023/12/22 13:52:43;;;;;;;;;;;20.40;56.70;;;;;;5092253;28;19924;-58
2023/12/22 13:55:09;;;;;;;;;;;20.40;56.70;;;;;;5074441;28;19931;-60
2023/12/22 13:57:35;;;;;;;;;;;20.40;56.80;;;;;;5074214;28;19924;-61
2023/12/22 14:00:00;;;;;;;;;;;20.40;56.80;;;;;;5092788;28;20422;-61
2023/12/22 14:02:26;;;;;;;;;;;20.40;56.80;;;;;;5074753;28;20011;-60
2023/12/22 14:04:51;;;;;;;;;;;20.40;56.80;;;;;;5081093;28;20101;-61
2023/12/22 14:07:17;;;;;;;;;;;20.40;56.90;;;;;;5090447;28;20380;-60
2023/12/22 14:09:42;;;;;;;;;;;20.30;56.90;;;;;;5091731;28;20024;-60